Time;durP1;ratioP1;P1;durP2;ratioP2;P2;SDS_P1;SDS_P2;PMS_P1;PMS_P2;Temp;Humidity;BMP_temperature;BMP_pressure;BME280_temperature;BME280_humidity;BME280_pressure;Samples;Min_cycle;Max_cycle;Signal;HPM_P1;HPM_P2
2021/07/27 00:01:08;;;;;;;3.40;3.10;;;15.50;99.90;;;;;;5011079;28;21214;-84
2021/07/27 00:03:34;;;;;;;5.30;4.80;;;15.40;99.90;;;;;;5013727;28;21150;-85
2021/07/27 00:06:01;;;;;;;5.40;4.50;;;15.40;99.90;;;;;;5013417;28;20638;-85
2021/07/27 00:08:28;;;;;;;7.97;4.10;;;15.50;99.90;;;;;;5021163;28;21210;-85
2021/07/27 00:10:54;;;;;;;6.40;4.43;;;15.50;99.90;;;;;;5019351;28;20649;-85
2021/07/27 00:13:21;;;;;;;4.37;3.77;;;15.50;99.90;;;;;;5008190;28;21018;-85
2021/07/27 00:15:49;;;;;;;4.20;3.50;;;15.50;99.90;;;;;;5011274;28;20642;-85
2021/07/27 00:18:16;;;;;;;6.90;4.73;;;15.40;99.90;;;;;;5014520;28;20630;-85
2021/07/27 00:20:43;;;;;;;4.67;4.20;;;15.50;99.90;;;;;;5014525;28;20658;-84
2021/07/27 00:23:10;;;;;;;6.30;4.33;;;15.40;99.90;;;;;;5012273;28;20915;-84
2021/07/27 00:25:38;;;;;;;5.43;4.93;;;15.40;99.90;;;;;;5011401;28;21071;-85
2021/07/27 00:28:05;;;;;;;6.50;5.90;;;15.30;99.90;;;;;;5011632;28;20632;-86
2021/07/27 00:30:32;;;;;;;10.70;6.37;;;15.30;99.90;;;;;;5014634;28;21306;-85
2021/07/27 00:33:00;;;;;;;7.60;5.87;;;15.20;99.90;;;;;;5011602;28;20644;-85
2021/07/27 00:35:28;;;;;;;13.27;6.67;;;15.20;99.90;;;;;;5016945;28;20634;-85
2021/07/27 00:38:07;;;;;;;7.70;6.90;;;15.20;99.90;;;;;;5017930;28;20635;-86
2021/07/27 00:40:35;;;;;;;7.60;6.57;;;15.20;99.90;;;;;;5014896;28;20698;-86
2021/07/27 00:43:04;;;;;;;7.57;6.80;;;15.20;99.90;;;;;;5017983;28;20623;-86
2021/07/27 00:45:31;;;;;;;7.43;6.83;;;15.20;99.90;;;;;;5017725;28;20667;-85
2021/07/27 00:47:58;;;;;;;8.47;6.67;;;15.10;99.90;;;;;;5017083;28;20614;-85
2021/07/27 00:50:29;;;;;;;6.90;5.10;;;15.10;99.90;;;;;;5015075;28;20800;-86
2021/07/27 00:52:57;;;;;;;6.80;5.60;;;15.10;99.90;;;;;;5019398;28;21258;-86
2021/07/27 00:55:25;;;;;;;8.90;6.57;;;15.10;99.90;;;;;;5015682;28;20631;-85
2021/07/27 00:57:51;;;;;;;7.10;6.50;;;15.00;99.90;;;;;;5010126;28;20626;-85
2021/07/27 01:00:18;;;;;;;6.10;5.60;;;15.00;99.90;;;;;;5012917;28;20646;-84
2021/07/27 01:02:45;;;;;;;7.53;6.57;;;15.00;99.90;;;;;;5012172;28;20619;-85
2021/07/27 01:05:13;;;;;;;5.60;5.10;;;15.10;99.90;;;;;;5022641;28;20633;-86
2021/07/27 01:07:41;;;;;;;6.03;5.00;;;15.00;99.90;;;;;;5018632;28;21181;-85
2021/07/27 01:10:10;;;;;;;5.37;4.90;;;15.00;99.90;;;;;;5018889;28;20666;-86
2021/07/27 01:12:38;;;;;;;7.13;5.40;;;14.90;99.90;;;;;;5017036;28;21016;-86
2021/07/27 01:15:06;;;;;;;5.83;5.33;;;14.90;99.90;;;;;;5016906;28;20697;-86
2021/07/27 01:17:33;;;;;;;6.43;5.27;;;14.90;99.90;;;;;;5013713;28;20722;-86
2021/07/27 01:20:04;;;;;;;6.27;5.00;;;14.90;99.90;;;;;;5020295;28;20650;-86
2021/07/27 01:39:20;;;;;;;9.63;7.90;;;14.90;99.90;;;;;;5014724;28;20572;-85
2021/07/27 01:42:07;;;;;;;9.00;8.30;;;14.80;99.90;;;;;;5014788;28;20870;-86
2021/07/27 01:44:36;;;;;;;16.73;8.40;;;14.80;99.90;;;;;;5011096;28;20639;-86
2021/07/27 01:47:03;;;;;;;7.40;6.80;;;14.80;99.90;;;;;;5014918;28;20666;-86
2021/07/27 01:49:29;;;;;;;9.63;7.57;;;14.70;99.90;;;;;;5015159;28;20661;-85
2021/07/27 01:51:56;;;;;;;8.53;7.73;;;14.70;99.90;;;;;;5015523;28;20985;-85
2021/07/27 01:54:30;;;;;;;9.27;7.40;;;14.70;99.90;;;;;;5014560;28;20635;-85
2021/07/27 01:56:57;;;;;;;12.80;6.93;;;14.70;99.90;;;;;;5016901;28;20619;-85
2021/07/27 01:59:24;;;;;;;8.47;7.20;;;14.70;99.90;;;;;;5010067;28;20673;-86
2021/07/27 02:01:52;;;;;;;6.37;5.77;;;14.60;99.90;;;;;;5017895;28;20619;-85
2021/07/27 02:04:19;;;;;;;6.60;6.10;;;14.70;99.90;;;;;;5009969;28;20633;-85
2021/07/27 02:06:45;;;;;;;6.83;6.23;;;14.70;99.90;;;;;;5020369;28;20635;-86
2021/07/27 02:09:14;;;;;;;7.90;6.93;;;14.70;99.90;;;;;;5016329;28;20623;-85
2021/07/27 02:11:45;;;;;;;7.20;6.50;;;14.70;99.90;;;;;;5011796;28;20728;-84
2021/07/27 02:14:14;;;;;;;8.70;7.80;;;14.80;99.90;;;;;;5019383;28;21161;-85
2021/07/27 02:16:41;;;;;;;7.60;6.93;;;14.70;99.90;;;;;;5010984;28;20639;-85
2021/07/27 02:19:08;;;;;;;13.33;7.60;;;14.70;99.90;;;;;;5015095;28;20638;-85
2021/07/27 02:21:35;;;;;;;10.70;8.10;;;14.70;99.90;;;;;;5013835;28;20655;-84
2021/07/27 02:24:03;;;;;;;8.23;7.53;;;14.60;99.90;;;;;;5013007;28;20635;-84
2021/07/27 02:26:30;;;;;;;8.73;7.87;;;14.60;99.90;;;;;;5015604;28;20631;-85
2021/07/27 02:28:59;;;;;;;10.23;7.30;;;14.50;99.90;;;;;;5022246;28;20619;-85
2021/07/27 02:31:31;;;;;;;9.23;7.40;;;14.50;99.90;;;;;;5014071;28;20657;-84
2021/07/27 02:33:59;;;;;;;7.43;6.43;;;14.50;99.90;;;;;;5014440;28;20676;-86
2021/07/27 02:36:25;;;;;;;8.00;6.73;;;14.40;99.90;;;;;;5017406;28;21177;-85
2021/07/27 02:38:52;;;;;;;7.00;6.30;;;14.40;99.90;;;;;;5013595;28;20622;-85
2021/07/27 02:41:33;;;;;;;5.90;5.40;;;14.40;99.90;;;;;;5021738;28;21001;-84
2021/07/27 02:44:01;;;;;;;11.83;6.50;;;14.50;99.90;;;;;;5017889;28;20646;-86
2021/07/27 02:46:28;;;;;;;8.73;6.90;;;14.50;99.90;;;;;;5019388;28;21220;-84
2021/07/27 02:49:02;;;;;;;8.60;7.80;;;14.50;99.90;;;;;;5013035;28;20627;-84
2021/07/27 02:51:30;;;;;;;12.00;8.97;;;14.60;99.90;;;;;;5012719;28;20644;-84
2021/07/27 02:53:56;;;;;;;11.50;8.70;;;14.60;99.90;;;;;;5015478;28;20643;-85
2021/07/27 02:56:25;;;;;;;10.33;9.20;;;14.50;99.90;;;;;;5015726;28;21115;-85
2021/07/27 02:58:54;;;;;;;10.27;9.37;;;14.50;99.90;;;;;;5005864;28;20651;-86
2021/07/27 03:01:22;;;;;;;8.70;8.00;;;14.50;99.90;;;;;;5015115;28;20662;-86
2021/07/27 03:03:49;;;;;;;8.97;6.90;;;14.50;99.90;;;;;;5011588;28;20616;-86
2021/07/27 03:06:18;;;;;;;9.63;8.73;;;14.90;99.90;;;;;;5018135;28;20672;-86
2021/07/27 03:09:03;;;;;;;10.70;9.43;;;14.70;99.90;;;;;;5015838;28;20635;-86
2021/07/27 03:11:30;;;;;;;9.93;8.53;;;14.60;99.90;;;;;;5010524;28;20655;-86
2021/07/27 03:13:57;;;;;;;10.30;9.30;;;14.50;99.90;;;;;;5015825;28;20663;-86
2021/07/27 03:16:26;;;;;;;8.80;8.00;;;14.40;99.90;;;;;;5010722;28;20631;-85
2021/07/27 03:18:53;;;;;;;10.07;9.27;;;14.40;99.90;;;;;;5016086;28;20634;-86
2021/07/27 03:21:21;;;;;;;8.40;7.60;;;14.40;99.90;;;;;;5017001;28;20654;-86
2021/07/27 03:23:48;;;;;;;8.27;7.67;;;14.40;99.90;;;;;;5012148;28;20697;-86
2021/07/27 03:26:15;;;;;;;9.40;8.60;;;14.40;99.90;;;;;;5016992;28;20837;-86
2021/07/27 03:28:43;;;;;;;9.33;8.43;;;14.30;99.90;;;;;;5013622;28;20635;-86
2021/07/27 03:31:09;;;;;;;13.57;8.83;;;14.30;99.90;;;;;;5019102;28;20650;-86
2021/07/27 03:33:38;;;;;;;10.43;8.70;;;14.30;99.90;;;;;;5013603;28;20689;-86
2021/07/27 03:36:05;;;;;;;9.23;8.33;;;14.30;99.90;;;;;;5019450;28;20626;-85
2021/07/27 03:38:32;;;;;;;8.00;7.40;;;14.20;99.90;;;;;;5018880;28;20635;-86
2021/07/27 03:41:04;;;;;;;8.03;7.30;;;14.30;99.90;;;;;;5012836;28;20656;-86
2021/07/27 03:43:30;;;;;;;8.53;7.70;;;14.20;99.90;;;;;;5015342;28;21183;-85
2021/07/27 03:45:58;;;;;;;9.63;8.50;;;14.20;99.90;;;;;;5010425;28;20995;-86
2021/07/27 03:48:25;;;;;;;9.70;7.60;;;14.30;99.90;;;;;;5015323;28;20580;-86
2021/07/27 03:50:53;;;;;;;8.83;7.97;;;14.20;99.90;;;;;;5015617;28;20665;-86
2021/07/27 03:53:20;;;;;;;8.33;7.30;;;14.20;99.90;;;;;;5012209;28;20766;-85
2021/07/27 03:55:47;;;;;;;8.10;7.40;;;14.20;99.90;;;;;;5013336;28;20643;-86
2021/07/27 03:58:14;;;;;;;8.67;7.80;;;14.20;99.90;;;;;;5005903;28;20668;-85
2021/07/27 04:00:41;;;;;;;8.63;7.63;;;14.10;99.90;;;;;;5008703;28;20655;-85
2021/07/27 04:03:07;;;;;;;10.00;7.30;;;14.10;99.90;;;;;;5018275;28;20634;-86
2021/07/27 04:05:34;;;;;;;9.13;7.60;;;14.20;99.90;;;;;;5010982;28;20642;-85
2021/07/27 04:08:02;;;;;;;8.20;7.60;;;14.10;99.90;;;;;;5017761;28;20647;-85
2021/07/27 04:10:29;;;;;;;8.73;7.83;;;14.10;99.90;;;;;;5012972;28;20642;-85
2021/07/27 04:12:56;;;;;;;8.33;7.63;;;14.20;99.90;;;;;;5012309;28;20663;-84
2021/07/27 04:15:42;;;;;;;7.87;6.90;;;14.20;99.90;;;;;;5010033;28;20662;-84
2021/07/27 04:18:09;;;;;;;11.97;6.33;;;14.20;99.90;;;;;;5009081;28;20619;-84
2021/07/27 04:20:35;;;;;;;8.03;7.17;;;14.20;99.90;;;;;;5012934;28;20681;-85
2021/07/27 04:23:04;;;;;;;7.27;6.67;;;14.10;99.90;;;;;;5011278;28;21194;-85
2021/07/27 04:25:32;;;;;;;10.47;9.60;;;14.20;99.90;;;;;;5012369;28;20642;-85
2021/07/27 04:27:59;;;;;;;11.37;9.50;;;14.20;99.90;;;;;;5016553;28;20627;-85
2021/07/27 04:30:26;;;;;;;35.23;12.67;;;14.20;99.90;;;;;;5016624;28;21265;-84
2021/07/27 04:32:53;;;;;;;74.87;14.27;;;14.30;99.90;;;;;;5012073;28;20999;-85
2021/07/27 04:35:20;;;;;;;13.87;12.50;;;14.30;99.90;;;;;;5019364;28;20822;-84
2021/07/27 04:37:46;;;;;;;13.60;12.20;;;14.30;99.90;;;;;;5016790;28;20626;-85
2021/07/27 04:40:15;;;;;;;12.80;11.60;;;14.30;99.90;;;;;;5018588;28;20685;-83
2021/07/27 04:42:43;;;;;;;12.70;11.60;;;14.40;99.90;;;;;;5012868;28;20624;-84
2021/07/27 04:45:10;;;;;;;12.87;11.67;;;14.40;99.90;;;;;;5017888;28;20638;-84
2021/07/27 04:47:37;;;;;;;14.23;11.87;;;14.40;99.90;;;;;;5014822;28;20632;-84
2021/07/27 04:50:04;;;;;;;13.50;11.70;;;14.50;99.90;;;;;;5017143;28;20659;-84
2021/07/27 04:52:31;;;;;;;11.43;10.30;;;14.50;99.90;;;;;;5015800;28;20635;-85
2021/07/27 04:54:58;;;;;;;16.20;10.37;;;14.50;99.90;;;;;;5018263;28;20674;-85
2021/07/27 04:57:26;;;;;;;11.37;10.17;;;14.60;99.90;;;;;;5012817;28;20641;-84
2021/07/27 04:59:53;;;;;;;10.80;9.77;;;14.70;99.90;;;;;;5013320;28;20662;-84
2021/07/27 05:02:20;;;;;;;10.90;10.00;;;14.70;99.90;;;;;;5014324;28;20665;-84
2021/07/27 05:04:47;;;;;;;10.73;9.70;;;14.70;99.90;;;;;;5011985;28;20619;-84
2021/07/27 05:07:14;;;;;;;11.00;9.77;;;14.80;99.90;;;;;;5014142;28;20630;-85
2021/07/27 05:09:40;;;;;;;13.53;10.43;;;14.80;99.90;;;;;;5015180;28;20662;-85
2021/07/27 05:12:08;;;;;;;13.20;10.17;;;14.90;99.90;;;;;;5009346;28;20627;-86
2021/07/27 05:14:36;;;;;;;12.83;11.63;;;14.90;99.90;;;;;;5015435;28;20702;-85
2021/07/27 05:17:07;;;;;;;11.50;9.90;;;15.00;99.90;;;;;;5016938;28;20631;-84
2021/07/27 05:19:34;;;;;;;14.27;10.40;;;15.00;99.90;;;;;;5011664;28;20769;-84
2021/07/27 05:22:01;;;;;;;17.07;10.70;;;15.10;99.90;;;;;;5015848;28;21003;-84
2021/07/27 05:24:27;;;;;;;10.57;9.40;;;15.10;99.90;;;;;;5012053;28;20942;-84
2021/07/27 05:26:54;;;;;;;9.37;8.47;;;15.20;99.90;;;;;;5015929;28;20638;-86
2021/07/27 05:29:21;;;;;;;12.30;10.57;;;15.40;99.90;;;;;;5013491;28;20630;-85
2021/07/27 05:31:49;;;;;;;12.40;10.90;;;15.40;99.90;;;;;;5016749;28;20733;-84
2021/07/27 05:34:16;;;;;;;10.33;9.30;;;15.50;99.90;;;;;;5013426;28;21036;-86
2021/07/27 05:36:42;;;;;;;12.80;11.30;;;15.50;99.90;;;;;;5011140;28;20627;-85
2021/07/27 05:39:09;;;;;;;10.90;9.90;;;15.60;99.90;;;;;;5008804;28;21182;-85
2021/07/27 05:41:37;;;;;;;10.73;9.83;;;15.60;99.90;;;;;;5018520;28;20660;-86
2021/07/27 05:44:04;;;;;;;12.20;10.63;;;15.70;99.90;;;;;;5015131;28;21142;-85
2021/07/27 05:46:31;;;;;;;10.50;9.43;;;15.70;99.90;;;;;;5011324;28;20625;-85
2021/07/27 05:48:59;;;;;;;11.07;8.67;;;15.80;99.90;;;;;;5011543;28;20627;-86
2021/07/27 05:51:27;;;;;;;9.80;8.00;;;15.90;99.90;;;;;;5012829;28;21195;-84
2021/07/27 05:53:53;;;;;;;10.30;9.30;;;16.00;99.90;;;;;;5013116;28;20667;-85
2021/07/27 05:56:20;;;;;;;10.53;8.50;;;16.10;99.90;;;;;;5016058;28;20623;-85
2021/07/27 05:58:47;;;;;;;11.10;10.00;;;16.10;99.90;;;;;;5013581;28;20662;-85
2021/07/27 06:01:14;;;;;;;10.30;9.43;;;16.20;99.90;;;;;;5016039;28;20655;-86
2021/07/27 06:03:41;;;;;;;8.90;7.47;;;16.20;99.90;;;;;;5013109;28;20619;-85
2021/07/27 06:06:09;;;;;;;11.37;7.63;;;16.30;99.90;;;;;;5020844;28;20630;-84
2021/07/27 06:08:36;;;;;;;6.27;5.67;;;16.60;99.90;;;;;;5011798;28;20631;-84
2021/07/27 06:11:05;;;;;;;12.73;6.33;;;16.80;99.90;;;;;;5021624;28;21001;-84
2021/07/27 06:13:34;;;;;;;10.20;6.70;;;17.00;99.90;;;;;;5011002;28;21107;-84
2021/07/27 06:16:05;;;;;;;6.17;4.77;;;17.10;99.90;;;;;;5017427;28;20638;-84
2021/07/27 06:18:32;;;;;;;11.53;5.53;;;17.20;99.90;;;;;;5012069;28;20714;-86
2021/07/27 06:20:58;;;;;;;5.67;5.17;;;17.40;99.90;;;;;;5018822;28;20631;-85
2021/07/27 06:23:27;;;;;;;10.10;6.10;;;17.50;99.90;;;;;;5010639;28;20617;-85
2021/07/27 06:25:54;;;;;;;5.43;5.03;;;17.60;99.90;;;;;;5011519;28;21219;-85
2021/07/27 06:28:21;;;;;;;6.33;5.40;;;17.70;99.90;;;;;;5010569;28;20645;-85
2021/07/27 06:30:47;;;;;;;6.00;5.40;;;17.60;99.90;;;;;;5012584;28;20663;-85
2021/07/27 06:33:17;;;;;;;6.07;5.13;;;17.90;99.90;;;;;;5014842;28;20694;-85
2021/07/27 06:35:44;;;;;;;8.10;5.50;;;18.10;99.90;;;;;;5013780;28;21057;-84
2021/07/27 06:38:11;;;;;;;6.90;6.00;;;18.30;99.90;;;;;;5016665;28;20634;-84
2021/07/27 06:40:39;;;;;;;5.40;4.90;;;18.40;99.90;;;;;;5010928;28;21006;-85
2021/07/27 06:43:06;;;;;;;5.37;4.67;;;18.30;99.90;;;;;;5018690;28;20959;-85
2021/07/27 06:45:33;;;;;;;7.33;5.50;;;18.40;99.90;;;;;;5011098;28;20647;-85
2021/07/27 06:47:59;;;;;;;5.63;4.50;;;18.50;99.90;;;;;;5012430;28;20636;-85
2021/07/27 06:50:28;;;;;;;6.10;4.60;;;18.50;99.90;;;;;;5013424;28;20662;-85
2021/07/27 06:52:55;;;;;;;7.70;5.40;;;18.50;99.90;;;;;;5012418;28;20734;-85
2021/07/27 06:55:21;;;;;;;5.87;5.37;;;18.60;99.90;;;;;;5014710;28;20704;-84
2021/07/27 06:57:49;;;;;;;6.77;4.83;;;18.50;99.90;;;;;;5018137;28;21173;-85
2021/07/27 07:00:17;;;;;;;6.50;5.30;;;18.40;99.90;;;;;;5014492;28;20675;-85
2021/07/27 07:02:44;;;;;;;6.10;4.50;;;18.40;99.90;;;;;;5016367;28;20619;-85
2021/07/27 07:05:11;;;;;;;5.70;5.10;;;18.50;99.90;;;;;;5008767;28;20612;-85
2021/07/27 07:07:39;;;;;;;7.17;6.47;;;18.50;99.90;;;;;;5013820;28;20630;-85
2021/07/27 07:10:07;;;;;;;6.30;5.70;;;18.60;99.90;;;;;;5012622;28;20753;-84
2021/07/27 07:12:34;;;;;;;6.53;4.37;;;18.70;99.90;;;;;;5011363;28;21193;-84
2021/07/27 07:15:03;;;;;;;9.37;5.70;;;18.90;99.90;;;;;;5018439;28;20692;-92
2021/07/27 07:17:31;;;;;;;13.67;5.50;;;18.90;99.90;;;;;;5016573;28;20632;-93
2021/07/27 07:19:58;;;;;;;10.73;5.10;;;18.90;99.90;;;;;;5016738;28;20671;-93
2021/07/27 07:22:25;;;;;;;7.20;5.53;;;18.70;99.90;;;;;;5017848;28;20986;-93
2021/07/27 07:24:52;;;;;;;5.50;4.97;;;18.90;99.90;;;;;;5014508;28;20939;-93
2021/07/27 07:27:19;;;;;;;8.00;6.17;;;19.00;99.90;;;;;;5023587;28;20631;-93
2021/07/27 07:29:46;;;;;;;7.97;5.50;;;19.20;99.90;;;;;;5020276;28;20648;-92
2021/07/27 07:32:14;;;;;;;8.30;6.23;;;19.20;99.90;;;;;;5016422;28;20653;-92
2021/07/27 07:34:41;;;;;;;7.27;5.30;;;19.40;99.90;;;;;;5012488;28;21187;-92
2021/07/27 07:37:08;;;;;;;6.73;6.20;;;19.50;99.90;;;;;;5013410;28;21325;-92
2021/07/27 07:39:35;;;;;;;9.80;6.60;;;19.30;99.90;;;;;;5010183;28;20668;-93
2021/07/27 07:42:04;;;;;;;8.60;5.57;;;19.40;99.90;;;;;;5003912;28;20659;-93
2021/07/27 07:44:31;;;;;;;6.63;5.90;;;19.50;99.90;;;;;;5014638;28;21213;-93
2021/07/27 07:46:58;;;;;;;6.47;5.83;;;19.60;99.90;;;;;;5017991;28;21138;-92
2021/07/27 07:49:26;;;;;;;6.53;5.93;;;19.60;99.90;;;;;;5014862;28;20639;-91
2021/07/27 07:51:54;;;;;;;5.40;4.90;;;19.60;99.90;;;;;;5014786;28;20735;-92
2021/07/27 07:54:22;;;;;;;6.83;5.73;;;19.70;99.90;;;;;;5014630;28;20702;-91
2021/07/27 07:56:49;;;;;;;6.37;5.67;;;19.90;99.90;;;;;;5017893;28;21041;-90
2021/07/27 07:59:16;;;;;;;6.90;6.13;;;20.00;99.90;;;;;;5020381;28;20646;-90
2021/07/27 08:01:45;;;;;;;8.00;6.67;;;20.10;99.90;;;;;;5021192;28;20622;-90
2021/07/27 08:04:12;;;;;;;7.73;6.17;;;20.30;99.90;;;;;;5018771;28;20621;-89
2021/07/27 08:06:40;;;;;;;5.70;5.10;;;20.40;99.90;;;;;;5012890;28;21424;-90
2021/07/27 08:09:06;;;;;;;6.60;5.77;;;20.70;99.90;;;;;;5014198;28;20651;-89
2021/07/27 08:11:33;;;;;;;7.93;6.00;;;20.80;99.90;;;;;;5014457;28;20623;-89
2021/07/27 08:14:00;;;;;;;7.13;5.30;;;20.80;99.90;;;;;;5020818;28;20671;-89
2021/07/27 08:16:27;;;;;;;5.87;5.27;;;20.80;99.90;;;;;;5020193;28;20634;-89
2021/07/27 08:18:54;;;;;;;6.10;5.60;;;21.00;99.90;;;;;;5015596;28;20726;-89
2021/07/27 08:21:23;;;;;;;5.60;5.07;;;21.30;99.90;;;;;;5019533;28;20626;-89
2021/07/27 08:23:52;;;;;;;7.20;6.10;;;21.30;99.90;;;;;;5016041;28;20977;-89
2021/07/27 08:26:19;;;;;;;6.43;5.60;;;21.50;99.90;;;;;;5010005;28;20627;-90
2021/07/27 08:28:46;;;;;;;6.90;5.70;;;21.50;99.90;;;;;;4999275;28;21358;-89
2021/07/27 08:31:13;;;;;;;8.87;5.63;;;21.30;99.90;;;;;;5016862;28;20693;-89
2021/07/27 08:33:41;;;;;;;9.07;5.07;;;21.50;99.90;;;;;;5018384;28;20642;-89
2021/07/27 08:36:07;;;;;;;8.20;5.63;;;21.60;99.90;;;;;;5019575;28;20710;-90
2021/07/27 08:38:35;;;;;;;7.97;4.60;;;21.50;99.90;;;;;;5018822;28;20627;-89
2021/07/27 08:41:06;;;;;;;5.63;5.10;;;21.50;99.90;;;;;;5012289;28;21037;-89
2021/07/27 08:43:34;;;;;;;5.10;4.20;;;21.50;99.90;;;;;;5017244;28;20996;-90
2021/07/27 08:46:01;;;;;;;4.70;4.33;;;21.60;99.90;;;;;;5021289;28;21193;-90
2021/07/27 08:48:28;;;;;;;5.73;5.23;;;21.40;99.90;;;;;;5011645;28;20875;-89
2021/07/27 08:50:54;;;;;;;4.83;4.43;;;21.50;99.90;;;;;;5018495;28;20624;-90
2021/07/27 08:53:21;;;;;;;13.53;5.17;;;21.60;99.90;;;;;;5019913;28;20639;-90
2021/07/27 08:55:48;;;;;;;6.23;4.60;;;21.70;99.90;;;;;;5016190;28;20663;-88
2021/07/27 08:58:18;;;;;;;4.63;4.17;;;21.60;99.90;;;;;;5018267;28;20642;-88
2021/07/27 09:00:45;;;;;;;5.20;4.77;;;21.70;99.90;;;;;;5017999;28;20685;-88
2021/07/27 09:03:14;;;;;;;5.70;5.10;;;21.90;99.90;;;;;;5020344;28;20621;-89
2021/07/27 09:05:41;;;;;;;4.80;4.43;;;22.20;99.90;;;;;;4996563;28;20711;-89
2021/07/27 09:08:09;;;;;;;5.20;4.67;;;22.40;99.90;;;;;;5017009;28;20635;-91
2021/07/27 09:10:37;;;;;;;6.33;4.80;;;22.60;99.90;;;;;;5015386;28;21257;-89
2021/07/27 09:13:06;;;;;;;7.13;5.00;;;22.70;99.90;;;;;;5018513;28;20629;-89
2021/07/27 09:15:36;;;;;;;6.17;5.67;;;22.80;99.90;;;;;;5015838;28;20667;-89
2021/07/27 09:18:05;;;;;;;5.40;4.90;;;22.90;99.90;;;;;;5020806;28;20637;-89
2021/07/27 09:20:35;;;;;;;6.17;5.20;;;23.00;99.90;;;;;;5017363;28;20667;-89
2021/07/27 09:23:02;;;;;;;5.60;5.10;;;22.90;99.90;;;;;;5015226;28;20625;-89
2021/07/27 09:25:31;;;;;;;6.27;5.40;;;22.90;99.90;;;;;;4997792;28;21062;-90
2021/07/27 09:28:08;;;;;;;5.77;5.13;;;23.20;99.90;;;;;;5016491;28;20673;-89
2021/07/27 09:30:38;;;;;;;6.67;6.00;;;23.50;99.90;;;;;;5018820;28;20651;-89
2021/07/27 09:33:05;;;;;;;6.30;5.80;;;23.30;99.90;;;;;;5016705;28;20635;-89
2021/07/27 09:35:33;;;;;;;6.00;5.40;;;23.30;99.90;;;;;;5019492;28;20654;-89
2021/07/27 09:38:08;;;;;;;6.60;5.10;;;23.40;99.90;;;;;;5016724;28;20627;-89
2021/07/27 09:40:37;;;;;;;7.63;5.63;;;23.60;99.90;;;;;;5013108;28;20647;-90
2021/07/27 09:43:04;;;;;;;5.73;5.23;;;23.50;99.90;;;;;;5010967;28;20634;-90
2021/07/27 09:45:31;;;;;;;6.03;5.63;;;23.50;99.90;;;;;;5023324;28;20631;-90
2021/07/27 09:47:59;;;;;;;8.17;5.17;;;23.50;99.90;;;;;;5025030;28;20639;-91
2021/07/27 09:50:26;;;;;;;5.00;4.60;;;23.60;99.90;;;;;;5024314;28;20650;-88
2021/07/27 09:52:53;;;;;;;7.47;4.87;;;23.50;99.90;;;;;;5023505;28;20636;-89
2021/07/27 09:55:24;;;;;;;5.20;4.80;;;23.80;99.90;;;;;;5033218;28;20669;-90
2021/07/27 09:57:52;;;;;;;5.23;4.83;;;23.80;99.90;;;;;;5021623;28;20677;-89
2021/07/27 10:00:19;;;;;;;5.37;4.97;;;23.80;99.90;;;;;;5022864;28;20725;-89
2021/07/27 10:02:49;;;;;;;6.70;5.07;;;23.70;99.90;;;;;;5019178;28;20911;-89
2021/07/27 10:05:23;;;;;;;6.13;4.67;;;24.00;99.90;;;;;;5015792;28;20612;-89
2021/07/27 10:07:57;;;;;;;5.10;4.80;;;24.30;99.90;;;;;;5020763;28;20681;-89
2021/07/27 10:10:43;;;;;;;5.40;4.90;;;24.40;99.90;;;;;;5015508;28;20651;-89
2021/07/27 10:13:12;;;;;;;6.47;4.83;;;24.40;99.90;;;;;;5026628;28;20634;-89
2021/07/27 10:15:41;;;;;;;5.90;5.30;;;24.50;99.90;;;;;;5020005;28;20680;-89
2021/07/27 10:18:09;;;;;;;6.83;6.23;;;24.60;99.90;;;;;;5019959;28;20655;-89
2021/07/27 10:20:37;;;;;;;5.67;5.17;;;24.60;99.90;;;;;;5013326;28;20685;-89
2021/07/27 10:23:22;;;;;;;5.80;5.13;;;24.80;99.90;;;;;;5012616;28;20643;-89
2021/07/27 10:25:54;;;;;;;6.00;5.57;;;25.10;99.90;;;;;;5016728;28;20633;-89
2021/07/27 10:28:25;;;;;;;6.10;5.70;;;25.10;99.90;;;;;;5011330;28;21005;-88
2021/07/27 10:31:02;;;;;;;5.53;5.13;;;25.00;99.90;;;;;;5016667;28;20691;-89
2021/07/27 10:33:30;;;;;;;5.70;5.20;;;25.40;99.90;;;;;;5015054;28;20638;-87
2021/07/27 10:36:02;;;;;;;5.70;5.20;;;25.80;99.90;;;;;;5012170;28;20663;-88
2021/07/27 10:38:37;;;;;;;5.83;5.27;;;25.50;99.90;;;;;;5018343;28;20647;-91
2021/07/27 10:41:34;;;;;;;7.63;5.43;;;25.50;99.90;;;;;;5020946;28;20654;-89
2021/07/27 10:44:05;;;;;;;6.30;5.80;;;26.00;99.90;;;;;;5021025;28;21011;-90
2021/07/27 10:46:36;;;;;;;5.80;5.20;;;26.30;99.90;;;;;;5027144;28;20666;-89
2021/07/27 10:49:02;;;;;;;5.50;5.00;;;25.90;99.90;;;;;;5020464;28;20651;-89
2021/07/27 10:51:37;;;;;;;8.73;4.70;;;25.80;99.90;;;;;;5018724;28;20666;-89
2021/07/27 10:54:05;;;;;;;5.67;5.27;;;26.50;99.90;;;;;;5032071;28;21485;-89
2021/07/27 10:56:33;;;;;;;6.20;5.10;;;27.00;99.90;;;;;;5023305;28;21028;-89
2021/07/27 10:59:01;;;;;;;5.60;5.20;;;27.00;99.90;;;;;;5011534;28;20635;-88
2021/07/27 11:01:32;;;;;;;6.50;5.83;;;27.00;99.90;;;;;;5013585;28;21198;-88
2021/07/27 11:04:09;;;;;;;5.30;4.90;;;27.00;99.90;;;;;;5015056;28;20697;-88
2021/07/27 11:06:37;;;;;;;4.73;4.33;;;27.20;99.90;;;;;;5020350;28;21135;-89
2021/07/27 11:09:05;;;;;;;4.67;4.27;;;27.50;99.90;;;;;;5018826;28;21209;-89
2021/07/27 11:11:42;;;;;;;5.30;4.83;;;27.70;99.90;;;;;;5016708;28;20642;-89
2021/07/27 11:14:09;;;;;;;5.00;4.60;;;28.00;99.90;;;;;;5018940;28;20630;-88
2021/07/27 11:16:41;;;;;;;4.60;4.20;;;27.90;97.60;;;;;;5010915;28;21039;-89
2021/07/27 11:19:10;;;;;;;4.83;4.43;;;28.30;98.30;;;;;;5012479;28;20662;-88
2021/07/27 11:21:40;;;;;;;5.20;4.70;;;28.10;98.80;;;;;;5018718;28;20635;-87
2021/07/27 11:24:07;;;;;;;4.83;4.43;;;28.20;98.30;;;;;;5017180;28;20972;-89
2021/07/27 11:26:37;;;;;;;5.97;5.57;;;28.70;94.20;;;;;;5012816;28;20620;-88
2021/07/27 11:29:10;;;;;;;5.07;4.57;;;29.10;96.40;;;;;;5013433;28;21050;-88
2021/07/27 11:31:45;;;;;;;4.33;4.03;;;28.70;92.20;;;;;;5014836;28;20615;-89
2021/07/27 11:34:12;;;;;;;5.30;4.60;;;28.40;92.60;;;;;;5016463;28;20622;-89
2021/07/27 11:36:50;;;;;;;4.97;4.27;;;28.60;95.10;;;;;;5017478;28;20670;-88
2021/07/27 11:39:17;;;;;;;4.33;4.03;;;29.00;91.10;;;;;;5019915;28;20685;-88
2021/07/27 11:41:44;;;;;;;6.50;4.40;;;28.90;92.00;;;;;;5018625;28;20632;-88
2021/07/27 11:44:12;;;;;;;4.60;4.20;;;29.20;92.30;;;;;;5012741;28;21218;-89
2021/07/27 11:46:44;;;;;;;5.20;4.90;;;29.00;93.50;;;;;;5017904;28;20653;-89
2021/07/27 11:49:11;;;;;;;4.50;4.10;;;29.10;92.40;;;;;;5013333;28;20720;-89
2021/07/27 11:51:39;;;;;;;4.43;4.13;;;29.10;92.70;;;;;;5011375;28;20642;-89
2021/07/27 11:54:08;;;;;;;4.40;4.10;;;29.00;93.90;;;;;;5013133;28;20999;-89
2021/07/27 11:56:45;;;;;;;5.43;5.03;;;29.30;91.50;;;;;;5015003;28;20683;-89
2021/07/27 11:59:12;;;;;;;5.67;5.20;;;29.00;92.40;;;;;;5014437;28;20698;-89
2021/07/27 12:01:40;;;;;;;5.30;4.53;;;28.60;93.00;;;;;;5017223;28;20631;-89
2021/07/27 12:04:06;;;;;;;4.47;4.17;;;28.40;92.70;;;;;;5015687;28;20689;-89
2021/07/27 12:06:33;;;;;;;4.20;3.60;;;28.30;94.10;;;;;;5019039;28;20632;-89
2021/07/27 12:09:02;;;;;;;5.03;4.40;;;27.80;97.50;;;;;;5017744;28;20656;-89
2021/07/27 12:11:29;;;;;;;5.87;4.60;;;27.50;94.10;;;;;;5016324;28;20695;-90
2021/07/27 12:13:55;;;;;;;4.50;4.10;;;27.10;95.00;;;;;;5019997;28;20994;-89
2021/07/27 12:16:22;;;;;;;4.50;4.20;;;27.10;95.40;;;;;;5011984;28;20667;-88
2021/07/27 12:18:49;;;;;;;4.13;3.90;;;27.10;98.90;;;;;;5012318;28;20663;-89
2021/07/27 12:21:16;;;;;;;4.80;4.40;;;26.90;99.90;;;;;;5014107;28;20642;-89
2021/07/27 12:23:42;;;;;;;5.77;4.83;;;26.90;98.50;;;;;;5011728;28;20615;-89
2021/07/27 12:26:10;;;;;;;5.00;4.60;;;26.90;95.80;;;;;;5016420;28;20637;-88
2021/07/27 12:28:37;;;;;;;5.33;4.93;;;27.10;97.50;;;;;;5009590;28;20627;-89
2021/07/27 12:31:04;;;;;;;4.67;4.30;;;27.10;95.80;;;;;;5011696;28;21329;-89
2021/07/27 12:33:31;;;;;;;5.23;4.73;;;27.20;95.60;;;;;;5008732;28;20649;-89
2021/07/27 12:36:00;;;;;;;5.07;4.50;;;27.50;95.00;;;;;;5014507;28;20664;-89
2021/07/27 12:38:27;;;;;;;4.97;4.57;;;27.50;95.80;;;;;;5007781;28;20643;-88
2021/07/27 12:40:53;;;;;;;5.37;4.97;;;27.50;95.30;;;;;;5011879;28;20643;-88
2021/07/27 12:43:24;;;;;;;4.40;4.10;;;28.10;93.60;;;;;;5013907;28;21180;-88
2021/07/27 12:45:51;;;;;;;4.53;4.23;;;29.00;90.50;;;;;;5015530;28;20611;-88
2021/07/27 12:48:18;;;;;;;4.67;4.37;;;28.70;92.00;;;;;;5021741;28;20997;-88
2021/07/27 12:50:44;;;;;;;5.20;4.70;;;28.80;91.20;;;;;;5015555;28;20647;-88
2021/07/27 12:53:11;;;;;;;4.47;4.17;;;28.60;92.70;;;;;;5025729;28;20634;-88
2021/07/27 12:55:38;;;;;;;4.80;4.50;;;29.20;93.10;;;;;;5017371;28;20678;-88
2021/07/27 12:58:04;;;;;;;4.87;4.50;;;29.90;90.00;;;;;;5019658;28;20623;-88
2021/07/27 13:00:33;;;;;;;5.00;4.30;;;30.50;90.20;;;;;;5023753;28;20665;-88
2021/07/27 13:03:00;;;;;;;4.73;4.43;;;31.20;84.20;;;;;;5019335;28;20634;-88
2021/07/27 13:05:26;;;;;;;6.40;5.80;;;31.00;82.70;;;;;;5018096;28;20726;-88